Main page
METAR-TAF:

METAR-TAF

Airports :

Gatesville Municipal Airport

Gatesville, Texas, United States

latitude: 31-25-16N, longitude: 097-47-49W, elevation: 905 ft

Current weather observation

The report was made 28 minutes ago, at 12:55 UTC
Calm wind
Temperature 36°F
Humidity 80%
Pressure 30.17 in. Hg
Visibility: 10 miles
Clear sky

METAR: KGOP 241255Z AUTO 00000KT 10SM CLR 02/M01 A3017 RMK AO2

Time: 07:23 (13:23 UTC)


TAF: missing

Weather observations and forecasts of more than 4000 airports (METAR and TAF reports).

The available stations are represented by yellow and red dots on the map.

Hover mouse over dot to see the name of the station.

Then click to see weather observations and forecasts.

To change the map : click on the green buttons with a black cross to zoom in, on the green button with a dash to zoom out, or on the green arrows for adjacent maps.


METAR-TAF: